createdAt,value
2022-09-17T00:04:27.098Z,4179.1
2022-09-17T00:10:03.809Z,4181.5
2022-09-17T00:15:38.848Z,4177.3
2022-09-17T00:21:14.290Z,4178.8
2022-09-17T00:26:50.218Z,4176.4
2022-09-17T00:32:46.874Z,4171.8
2022-09-17T00:38:20.430Z,4175.4
2022-09-17T00:43:56.381Z,4176.4
2022-09-17T00:49:31.415Z,4175.6
2022-09-17T00:55:06.239Z,4176.9
2022-09-17T01:00:44.353Z,4174.6
2022-09-17T01:06:20.603Z,4173.6
2022-09-17T01:11:55.761Z,4172.9
2022-09-17T01:17:31.645Z,4174.1
2022-09-17T01:23:06.996Z,4174.6
2022-09-17T01:28:41.794Z,4173.8
2022-09-17T01:34:39.974Z,4171.4
2022-09-17T01:40:14.761Z,4175.4
2022-09-17T01:45:49.543Z,4173.3
2022-09-17T01:51:25.442Z,4171.9
2022-09-17T01:57:00.182Z,4172.8
2022-09-17T02:02:34.968Z,4173.9
2022-09-17T02:08:12.468Z,4173.6
2022-09-17T02:13:47.799Z,4170.4
2022-09-17T02:19:22.664Z,4170.7
2022-09-17T02:24:58.560Z,4171.1
2022-09-17T02:30:33.654Z,4171.3
2022-09-17T02:36:08.688Z,4169.6
2022-09-17T02:41:45.578Z,4169.2
2022-09-17T02:47:20.412Z,4168.2
2022-09-17T02:52:55.486Z,4169.2
2022-09-17T02:58:31.370Z,4171.6
2022-09-17T03:04:06.123Z,4168.7
2022-09-17T03:09:40.891Z,4171.3
2022-09-17T03:15:16.540Z,4167.9
2022-09-17T03:20:51.680Z,4167.6
2022-09-17T03:26:27.417Z,4170.1
2022-09-17T03:32:24.959Z,4163.7
2022-09-17T03:37:57.550Z,4162.2
2022-09-17T03:43:32.159Z,4168.4
2022-09-17T03:49:08.293Z,4164.6
2022-09-17T03:54:44.350Z,4166.2
2022-09-17T04:00:19.011Z,4163.2
2022-09-17T04:05:55.314Z,4165.6
2022-09-17T04:11:30.373Z,4163.7
2022-09-17T04:17:06.063Z,4163.9
2022-09-17T04:22:42.942Z,4163.4
2022-09-17T04:28:17.790Z,4162.5
2022-09-17T04:34:14.244Z,4160.5
2022-09-17T04:39:48.188Z,4161.9
2022-09-17T04:45:24.034Z,4161.4
2022-09-17T04:50:58.760Z,4162.9
2022-09-17T04:56:34.591Z,4158.4
2022-09-17T05:02:11.506Z,4164.2
2022-09-17T05:07:46.384Z,4160
2022-09-17T05:13:23.139Z,4160.5
2022-09-17T05:18:58.539Z,4161.4
2022-09-17T05:24:33.313Z,4157
2022-09-17T05:30:09.543Z,4157.5
2022-09-17T05:35:44.522Z,4157.5
2022-09-17T05:41:19.384Z,4159
2022-09-17T05:46:56.314Z,4161.2
2022-09-17T05:52:32.320Z,4157
2022-09-17T05:58:07.181Z,4155.8
2022-09-17T06:03:43.593Z,4155
2022-09-17T06:09:19.161Z,4158.4
2022-09-17T06:14:55.006Z,4164.9
2022-09-17T06:20:31.519Z,4169.6
2022-09-17T06:26:06.873Z,4166.1
2022-09-17T06:32:03.493Z,4164.6
2022-09-17T06:37:38.096Z,4171.1
2022-09-17T06:43:12.870Z,4170.6
2022-09-17T06:48:47.953Z,4174.1
2022-09-17T06:54:23.887Z,4182.5
2022-09-17T06:59:59.758Z,4183.3
2022-09-17T07:05:34.726Z,4183.8
2022-09-17T07:11:10.612Z,4181.5
2022-09-17T07:16:45.711Z,4182.3
2022-09-17T07:22:22.568Z,4188.7
2022-09-17T07:27:58.536Z,4179.3
2022-09-17T07:33:54.991Z,4187.3
2022-09-17T07:39:28.721Z,4192.5
2022-09-17T07:45:04.698Z,4191.5
2022-09-17T07:50:39.731Z,4210.1
2022-09-17T07:56:14.904Z,4209.8
2022-09-17T08:01:53.536Z,4202.2
2022-09-17T08:07:28.888Z,4213.3
2022-09-17T08:13:03.732Z,4202.9
2022-09-17T08:18:39.666Z,4199.1
2022-09-17T08:24:14.417Z,4211.5
2022-09-17T08:29:49.278Z,4221.8
2022-09-17T08:35:25.176Z,4219.3
2022-09-17T08:41:00.431Z,4221.8
2022-09-17T08:46:35.989Z,4232.2
2022-09-17T08:52:12.468Z,4230.2
2022-09-17T08:57:47.513Z,4224.3
2022-09-17T09:03:22.357Z,4219.2
2022-09-17T09:08:59.789Z,4215.3
2022-09-17T09:14:34.813Z,4214.1
2022-09-17T09:20:10.695Z,4230.7
2022-09-17T09:25:46.807Z,4228.7
2022-09-17T09:31:44.209Z,4220.3
2022-09-17T09:37:16.952Z,4221.7
2022-09-17T09:42:52.462Z,4216
2022-09-17T09:48:27.608Z,4226.9
2022-09-17T09:54:02.652Z,4223.7
2022-09-17T09:59:38.565Z,4224.2
2022-09-17T10:05:13.833Z,4221.2
2022-09-17T10:10:49.679Z,4218.2
2022-09-17T10:16:26.857Z,4223.5
2022-09-17T10:22:02.073Z,4222.8
2022-09-17T10:27:37.071Z,4215
2022-09-17T10:33:34.710Z,4225.9
2022-09-17T10:39:07.445Z,4222.2
2022-09-17T10:44:42.320Z,4214.3
2022-09-17T10:50:19.599Z,4223.8
2022-09-17T10:55:55.004Z,4212.8
2022-09-17T11:01:31.342Z,4221
2022-09-17T11:07:07.846Z,4221.5
2022-09-17T11:12:43.189Z,4229.7
2022-09-17T11:18:17.956Z,4212.1
2022-09-17T11:23:53.924Z,4222.3
2022-09-17T11:29:28.975Z,4216.8
2022-09-17T11:35:03.812Z,4225
2022-09-17T11:40:44.529Z,4225.4
2022-09-17T11:46:21.777Z,4226.5
2022-09-17T11:51:59.332Z,4223.8
2022-09-17T11:57:35.655Z,4219.5
2022-09-17T12:03:11.924Z,4229.2
2022-09-17T12:08:47.401Z,4219.3
2022-09-17T12:14:23.886Z,4232.1
2022-09-17T12:19:58.937Z,4223.2
2022-09-17T12:25:33.895Z,4219.2
2022-09-17T12:31:11.287Z,4217.8
2022-09-17T12:36:46.582Z,4233.6
2022-09-17T12:42:22.333Z,4222.2
2022-09-17T12:47:58.537Z,4218.5
2022-09-17T12:53:33.573Z,4227.4
2022-09-17T12:59:08.405Z,4218.8
2022-09-17T13:05:03.985Z,4221.8
2022-09-17T13:10:40.328Z,4225
2022-09-17T13:16:21.890Z,4218.7
2022-09-17T13:21:58.391Z,4221.7
2022-09-17T13:27:34.627Z,4229.2
2022-09-17T13:33:09.564Z,4230
2022-09-17T13:38:45.701Z,4223.2
2022-09-17T13:44:21.054Z,4229
2022-09-17T13:49:57.050Z,4231
2022-09-17T13:55:33.334Z,4224.9
2022-09-17T14:01:09.299Z,4219.8
2022-09-17T14:06:44.488Z,4222
2022-09-17T14:12:21.576Z,4228.5
2022-09-17T14:18:00.257Z,4218.5
2022-09-17T14:23:35.531Z,4226.7
2022-09-17T14:29:13.210Z,4228.4
2022-09-17T14:34:48.744Z,4224
2022-09-17T14:40:25.337Z,4215.6
2022-09-17T14:46:02.682Z,4231.6
2022-09-17T14:51:37.900Z,4234.1
2022-09-17T14:57:12.826Z,4226.4
2022-09-17T15:02:50.369Z,4223.5
2022-09-17T15:08:25.412Z,4229.7
2022-09-17T15:14:00.318Z,4225.7
2022-09-17T15:19:42.865Z,4217.3
2022-09-17T15:25:18.577Z,4221.8
2022-09-17T15:30:53.484Z,4208.3
2022-09-17T15:36:29.879Z,4216.8
2022-09-17T15:42:05.102Z,4217.1
2022-09-17T15:47:40.142Z,4215.1
2022-09-17T15:53:16.587Z,4212.1
2022-09-17T15:58:51.321Z,4219.3
2022-09-17T16:04:26.568Z,4209.6
2022-09-17T16:10:02.797Z,4210.8
2022-09-17T16:15:38.055Z,4208.1
2022-09-17T16:21:13.758Z,4210.1
2022-09-17T16:26:50.014Z,4210.6
2022-09-17T16:32:25.654Z,4216.6
2022-09-17T16:38:00.675Z,4208.3
2022-09-17T16:43:37.025Z,4209.1
2022-09-17T16:49:12.089Z,4206.1
2022-09-17T16:54:47.037Z,4207.8
2022-09-17T17:00:22.820Z,4205.6
2022-09-17T17:05:57.619Z,4203.2
2022-09-17T17:11:33.504Z,4203.9
2022-09-17T17:17:09.532Z,4206.8
2022-09-17T17:22:45.246Z,4205.6
2022-09-17T17:28:19.912Z,4205.1
2022-09-17T17:33:56.546Z,4201.2
2022-09-17T17:39:32.459Z,4199.2
2022-09-17T17:45:07.366Z,4198.4
2022-09-17T17:50:43.259Z,4196.9
2022-09-17T17:56:18.000Z,4198.6
2022-09-17T18:01:55.097Z,4198.6
2022-09-17T18:07:31.816Z,4198.7
2022-09-17T18:13:06.693Z,4195.9
2022-09-17T18:18:46.216Z,4197.4
2022-09-17T18:24:22.819Z,4196.5
2022-09-17T18:29:57.747Z,4196
2022-09-17T18:35:32.451Z,4194.9
2022-09-17T18:41:08.611Z,4196.7
2022-09-17T18:46:44.291Z,4193.7
2022-09-17T18:52:19.443Z,4194.7
2022-09-17T18:57:55.324Z,4191.5
2022-09-17T19:03:30.385Z,4195.4
2022-09-17T19:09:05.788Z,4197.2
2022-09-17T19:14:41.414Z,4191.9
2022-09-17T19:20:16.549Z,4194
2022-09-17T19:25:52.539Z,4192.7
2022-09-17T19:31:30.096Z,4193.2
2022-09-17T19:37:05.031Z,4191.5
2022-09-17T19:42:39.897Z,4190.3
2022-09-17T19:48:16.684Z,4189.3
2022-09-17T19:53:51.483Z,4189
2022-09-17T19:59:27.391Z,4194.7
2022-09-17T20:05:03.301Z,4187.7
2022-09-17T20:10:38.371Z,4190
2022-09-17T20:16:15.468Z,4187.8
2022-09-17T20:21:51.641Z,4185.2
2022-09-17T20:27:34.560Z,4190.7
2022-09-17T20:33:09.267Z,4187.5
2022-09-17T20:39:26.021Z,4186.2
2022-09-17T20:45:02.312Z,4186.7
2022-09-17T20:50:37.282Z,4184.5
2022-09-17T20:56:13.287Z,4183.3
2022-09-17T21:01:49.279Z,4184.1
2022-09-17T21:07:24.060Z,4184.3
2022-09-17T21:13:00.317Z,4185.7
2022-09-17T21:18:40.910Z,4182.6
2022-09-17T21:24:15.601Z,4183.6
2022-09-17T21:29:51.325Z,4186.3
2022-09-17T21:35:34.247Z,4182.5
2022-09-17T21:41:10.334Z,4182.3
2022-09-17T21:46:47.309Z,4184.1
2022-09-17T21:52:22.678Z,4183.6
2022-09-17T21:57:57.459Z,4183
2022-09-17T22:03:34.267Z,4181.3
2022-09-17T22:09:09.264Z,4181.3
2022-09-17T22:14:44.472Z,4179.1
2022-09-17T22:20:20.666Z,4180.8
2022-09-17T22:25:55.653Z,4184.7
2022-09-17T22:31:52.771Z,4177.1
2022-09-17T22:37:26.830Z,4178.8
2022-09-17T22:43:01.581Z,4179.6
2022-09-17T22:48:36.306Z,4179.5
2022-09-17T22:54:13.851Z,4181.6
2022-09-17T22:59:49.621Z,4179.5
2022-09-17T23:05:24.685Z,4178.5
2022-09-17T23:11:01.179Z,4177.1
2022-09-17T23:16:36.775Z,4179.3
2022-09-17T23:22:11.437Z,4177.8
2022-09-17T23:27:47.886Z,4175.1
2022-09-17T23:33:44.736Z,4174.1
2022-09-17T23:39:17.208Z,4176.3
2022-09-17T23:44:53.951Z,4178.3
2022-09-17T23:50:29.312Z,4174.9
2022-09-17T23:56:03.992Z,4176.4
